createdAt,value
2024-05-09T00:00:44.077Z,14.59
2024-05-09T00:03:12.352Z,14.56
2024-05-09T00:05:44.251Z,14.57
2024-05-09T00:08:12.643Z,14.55
2024-05-09T00:10:41.238Z,14.54
2024-05-09T00:13:10.864Z,14.53
2024-05-09T00:15:38.949Z,14.49
2024-05-09T00:18:07.600Z,14.48
2024-05-09T00:20:39.342Z,14.45
2024-05-09T00:23:12.103Z,14.44
2024-05-09T00:25:40.443Z,14.40
2024-05-09T00:28:07.838Z,14.37
2024-05-09T00:30:36.943Z,14.34
2024-05-09T00:33:08.542Z,14.36
2024-05-09T00:35:37.554Z,14.39
2024-05-09T00:38:05.500Z,14.39
2024-05-09T00:40:41.008Z,14.37
2024-05-09T00:43:14.612Z,14.36
2024-05-09T00:45:43.661Z,14.39
2024-05-09T00:48:17.578Z,14.39
2024-05-09T00:50:47.439Z,14.42
2024-05-09T00:53:17.633Z,14.43
2024-05-09T00:55:45.375Z,14.45
2024-05-09T00:58:16.775Z,14.47
2024-05-09T01:00:45.202Z,14.48
2024-05-09T01:03:14.178Z,14.48
2024-05-09T01:05:43.439Z,14.51
2024-05-09T01:08:11.950Z,14.50
2024-05-09T01:10:42.550Z,14.50
2024-05-09T01:13:12.222Z,14.50
2024-05-09T01:15:39.595Z,14.48
2024-05-09T01:18:13.166Z,14.51
2024-05-09T01:20:43.965Z,14.51
2024-05-09T01:23:15.604Z,14.52
2024-05-09T01:25:45.625Z,14.54
2024-05-09T01:28:14.187Z,14.55
2024-05-09T01:30:41.626Z,14.54
2024-05-09T01:33:11.328Z,14.52
2024-05-09T01:35:42.208Z,14.52
2024-05-09T01:38:17.081Z,14.50
2024-05-09T01:40:45.349Z,14.51
2024-05-09T01:43:12.824Z,14.51
2024-05-09T01:45:41.187Z,14.51
2024-05-09T01:48:10.741Z,14.51
2024-05-09T01:50:43.196Z,14.49
2024-05-09T01:53:13.185Z,14.46
2024-05-09T01:55:41.136Z,14.44
2024-05-09T01:58:09.666Z,14.40
2024-05-09T02:00:41.050Z,14.37
2024-05-09T02:03:16.424Z,14.35
2024-05-09T02:05:47.730Z,14.31
2024-05-09T02:08:18.531Z,14.27
2024-05-09T02:10:47.812Z,14.25
2024-05-09T02:13:16.428Z,14.21
2024-05-09T02:15:44.406Z,14.19
2024-05-09T02:18:12.414Z,14.16
2024-05-09T02:20:44.078Z,14.13
2024-05-09T02:23:12.284Z,14.08
2024-05-09T02:25:40.692Z,14.06
2024-05-09T02:28:08.078Z,14.03
2024-05-09T02:30:39.911Z,14.01
2024-05-09T02:33:12.295Z,13.97
2024-05-09T02:35:41.860Z,13.93
2024-05-09T02:38:10.463Z,13.89
2024-05-09T02:40:39.587Z,13.85
2024-05-09T02:43:10.942Z,13.83
2024-05-09T02:45:40.221Z,13.81
2024-05-09T02:48:11.553Z,13.78
2024-05-09T02:50:44.413Z,13.77
2024-05-09T02:53:13.000Z,13.74
2024-05-09T02:55:41.645Z,13.73
2024-05-09T02:58:09.634Z,13.69
2024-05-09T03:00:42.473Z,13.65
2024-05-09T03:03:13.756Z,13.62
2024-05-09T03:05:44.245Z,13.59
2024-05-09T03:08:12.420Z,13.58
2024-05-09T03:10:40.113Z,13.56
2024-05-09T03:13:13.262Z,13.54
2024-05-09T03:15:42.760Z,13.49
2024-05-09T03:18:10.990Z,13.45
2024-05-09T03:20:39.381Z,13.43
2024-05-09T03:23:09.568Z,13.40
2024-05-09T03:25:38.192Z,13.38
2024-05-09T03:28:06.091Z,13.36
2024-05-09T03:30:40.833Z,13.35
2024-05-09T03:33:13.498Z,13.34
2024-05-09T03:35:42.309Z,13.33
2024-05-09T03:38:10.020Z,13.29
2024-05-09T03:40:44.504Z,13.27
2024-05-09T03:43:11.959Z,13.23
2024-05-09T03:45:39.368Z,13.21
2024-05-09T03:48:07.275Z,13.19
2024-05-09T03:50:36.252Z,13.19
2024-05-09T03:53:04.762Z,13.16
2024-05-09T03:55:32.327Z,13.13
2024-05-09T03:57:59.917Z,13.12
2024-05-09T04:00:35.474Z,13.07
2024-05-09T04:03:09.046Z,13.03
2024-05-09T04:05:43.907Z,13.00
2024-05-09T04:08:12.123Z,12.98
2024-05-09T04:10:39.562Z,12.95
2024-05-09T04:13:06.952Z,12.95
2024-05-09T04:15:34.345Z,12.96
2024-05-09T04:18:02.653Z,12.94
2024-05-09T04:20:37.681Z,12.94
2024-05-09T04:23:11.376Z,12.91
2024-05-09T04:25:38.978Z,12.90
2024-05-09T04:28:06.427Z,12.88
2024-05-09T04:30:38.756Z,12.86
2024-05-09T04:33:11.956Z,12.86
2024-05-09T04:35:45.451Z,12.84
2024-05-09T04:38:14.995Z,12.86
2024-05-09T04:40:42.900Z,12.84
2024-05-09T04:43:19.146Z,12.83
2024-05-09T04:45:46.638Z,12.81
2024-05-09T04:48:14.358Z,12.80
2024-05-09T04:50:42.152Z,12.83
2024-05-09T04:53:11.358Z,12.81
2024-05-09T04:55:40.063Z,12.83
2024-05-09T04:58:09.656Z,12.83
2024-05-09T05:00:39.069Z,12.83
2024-05-09T05:03:14.094Z,12.80
2024-05-09T05:05:45.157Z,12.79
2024-05-09T05:08:15.145Z,12.78
2024-05-09T05:10:44.092Z,12.78
2024-05-09T05:13:24.984Z,12.80
2024-05-09T05:15:57.411Z,12.80
2024-05-09T05:18:28.881Z,12.81
2024-05-09T05:20:57.041Z,12.84
2024-05-09T05:23:25.247Z,12.88
2024-05-09T05:25:54.408Z,12.91
2024-05-09T05:28:22.521Z,12.94
2024-05-09T05:30:50.199Z,12.95
2024-05-09T05:33:23.044Z,12.94
2024-05-09T05:35:51.549Z,13.00
2024-05-09T05:38:20.033Z,13.04
2024-05-09T05:40:49.251Z,13.09
2024-05-09T05:43:18.320Z,13.13
2024-05-09T05:45:46.281Z,13.19
2024-05-09T05:48:18.018Z,13.23
2024-05-09T05:50:45.604Z,13.29
2024-05-09T05:53:13.296Z,13.37
2024-05-09T05:55:41.797Z,13.41
2024-05-09T05:58:10.776Z,13.45
2024-05-09T06:00:40.271Z,13.48
2024-05-09T06:03:10.046Z,13.51
2024-05-09T06:05:44.075Z,13.52
2024-05-09T06:08:12.240Z,13.59
2024-05-09T06:10:41.164Z,13.65
2024-05-09T06:13:13.724Z,13.70
2024-05-09T06:15:42.565Z,13.79
2024-05-09T06:18:11.979Z,13.83
2024-05-09T06:20:42.342Z,13.87
2024-05-09T06:23:11.008Z,13.90
2024-05-09T06:25:38.969Z,13.95
2024-05-09T06:28:06.776Z,14.01
2024-05-09T06:30:40.202Z,14.04
2024-05-09T06:33:12.793Z,14.07
2024-05-09T06:35:42.486Z,14.10
2024-05-09T06:38:11.593Z,14.15
2024-05-09T06:40:42.781Z,14.22
2024-05-09T06:43:11.842Z,14.25
2024-05-09T06:45:40.154Z,14.33
2024-05-09T06:48:09.284Z,14.42
2024-05-09T06:50:38.619Z,14.48
2024-05-09T06:53:07.899Z,14.55
2024-05-09T06:55:35.483Z,14.62
2024-05-09T06:58:05.979Z,14.71
2024-05-09T07:00:39.113Z,14.74
2024-05-09T07:03:14.746Z,14.78
2024-05-09T07:05:44.687Z,14.83
2024-05-09T07:08:12.456Z,14.88
2024-05-09T07:10:40.002Z,14.88
2024-05-09T07:13:11.077Z,14.94
2024-05-09T07:15:38.761Z,14.99
2024-05-09T07:18:11.589Z,15.06
2024-05-09T07:20:41.062Z,15.13
2024-05-09T07:23:13.135Z,15.23
2024-05-09T07:25:41.819Z,15.33
2024-05-09T07:28:18.119Z,15.42
2024-05-09T07:30:46.244Z,15.48
2024-05-09T07:33:22.758Z,15.56
2024-05-09T07:35:53.329Z,15.68
2024-05-09T07:38:21.514Z,15.79
2024-05-09T07:40:51.607Z,15.91
2024-05-09T07:43:18.998Z,16.04
2024-05-09T07:45:52.547Z,16.18
2024-05-09T07:52:39.307Z,16.48
2024-05-09T07:53:48.839Z,16.64
2024-05-09T07:56:21.808Z,16.81
2024-05-09T07:58:51.759Z,16.99
2024-05-09T08:01:20.744Z,17.18
2024-05-09T08:03:48.669Z,17.42
2024-05-09T08:06:16.155Z,17.73
2024-05-09T08:08:43.531Z,18.09
2024-05-09T08:11:10.919Z,18.51
2024-05-09T08:13:38.420Z,19.01
2024-05-09T08:16:07.823Z,19.54
2024-05-09T08:18:35.598Z,20.02
2024-05-09T08:21:03.293Z,20.55
2024-05-09T08:23:30.701Z,20.98
2024-05-09T08:25:58.070Z,21.41
2024-05-09T08:28:25.525Z,21.87
2024-05-09T08:30:53.055Z,22.30
2024-05-09T08:33:20.632Z,22.63
2024-05-09T08:35:48.047Z,22.74
2024-05-09T08:38:15.496Z,22.91
2024-05-09T08:40:43.876Z,23.16
2024-05-09T08:43:12.921Z,23.39
2024-05-09T08:45:45.424Z,23.56
2024-05-09T08:48:15.815Z,23.74
2024-05-09T08:50:45.381Z,23.86
2024-05-09T08:53:15.449Z,24.01
2024-05-09T08:55:44.366Z,24.18
2024-05-09T08:58:21.951Z,24.27
2024-05-09T09:00:49.836Z,24.36
2024-05-09T09:03:25.435Z,24.30
2024-05-09T09:06:12.515Z,24.16
2024-05-09T09:08:40.421Z,24.05
2024-05-09T09:11:07.899Z,24.08
2024-05-09T09:13:35.229Z,23.94
2024-05-09T09:16:03.755Z,23.95
2024-05-09T09:18:32.820Z,24.03
2024-05-09T09:21:00.427Z,24.07
2024-05-09T09:23:30.230Z,24.18
2024-05-09T09:26:01.388Z,24.33
2024-05-09T09:28:29.966Z,24.49
2024-05-09T09:31:04.798Z,24.43
2024-05-09T09:33:33.130Z,24.37
2024-05-09T09:36:03.017Z,24.29
2024-05-09T09:38:32.520Z,24.17
2024-05-09T09:41:05.876Z,24.00
2024-05-09T09:43:34.118Z,23.97
2024-05-09T09:46:02.423Z,24.08
2024-05-09T09:48:32.382Z,24.30
2024-05-09T09:51:00.869Z,24.31
2024-05-09T09:53:32.443Z,24.24
2024-05-09T09:56:01.162Z,24.22
2024-05-09T09:58:30.540Z,24.20
2024-05-09T10:00:58.010Z,24.17
2024-05-09T10:03:25.852Z,24.13
2024-05-09T10:05:54.750Z,24.09
2024-05-09T10:08:24.645Z,24.07
2024-05-09T10:10:52.463Z,24.08
2024-05-09T10:13:20.279Z,24.07
2024-05-09T10:15:52.546Z,24.19
2024-05-09T10:18:27.247Z,24.35
2024-05-09T10:20:56.842Z,24.62
2024-05-09T10:23:26.461Z,24.82
2024-05-09T10:26:05.309Z,24.99
2024-05-09T10:28:37.114Z,25.04
2024-05-09T10:31:08.964Z,24.94
2024-05-09T10:33:48.700Z,24.64
2024-05-09T10:36:23.334Z,24.40
2024-05-09T10:38:52.948Z,24.32
2024-05-09T10:41:23.238Z,24.18
2024-05-09T10:43:51.557Z,24.01
2024-05-09T10:46:20.044Z,23.78
2024-05-09T10:48:48.844Z,23.64
2024-05-09T10:51:19.871Z,23.56
2024-05-09T10:53:48.743Z,23.46
2024-05-09T10:56:17.246Z,23.35
2024-05-09T10:58:45.049Z,23.09
2024-05-09T11:01:14.089Z,22.87
2024-05-09T11:03:42.210Z,22.72
2024-05-09T11:06:11.718Z,22.54
2024-05-09T11:08:39.912Z,22.44
2024-05-09T11:11:08.928Z,22.43
2024-05-09T11:13:40.976Z,22.36
2024-05-09T11:16:20.160Z,22.15
2024-05-09T11:18:58.962Z,21.95
2024-05-09T11:21:27.099Z,21.82
2024-05-09T11:23:55.075Z,21.69
2024-05-09T11:26:22.817Z,21.50
2024-05-09T11:28:51.023Z,21.37
2024-05-09T11:31:18.945Z,21.26
2024-05-09T11:33:46.894Z,21.28
2024-05-09T11:36:15.520Z,21.26
2024-05-09T11:38:43.276Z,21.19
2024-05-09T11:41:18.709Z,21.14
2024-05-09T11:43:47.208Z,21.14
2024-05-09T11:46:14.998Z,21.23
2024-05-09T11:48:42.852Z,21.15
2024-05-09T11:51:10.387Z,20.94
2024-05-09T11:53:37.799Z,20.86
2024-05-09T11:56:05.632Z,20.93
2024-05-09T11:58:34.852Z,21.09
2024-05-09T12:01:02.656Z,21.27
2024-05-09T12:03:30.520Z,21.37
2024-05-09T12:05:58.220Z,21.45
2024-05-09T12:08:25.750Z,21.58
2024-05-09T12:10:53.865Z,21.67
2024-05-09T12:13:21.602Z,21.76
2024-05-09T12:15:49.156Z,21.83
2024-05-09T12:18:16.667Z,21.93
2024-05-09T12:20:44.098Z,22.03
2024-05-09T12:23:11.555Z,21.93
2024-05-09T12:25:40.307Z,21.78
2024-05-09T12:28:09.067Z,21.70
2024-05-09T12:30:40.136Z,21.74
2024-05-09T12:33:11.589Z,21.71
2024-05-09T12:35:40.114Z,21.67
2024-05-09T12:38:07.768Z,21.67
2024-05-09T12:40:38.053Z,21.74
2024-05-09T12:43:10.660Z,21.85
2024-05-09T12:45:40.773Z,21.97
2024-05-09T12:48:12.284Z,22.13
2024-05-09T12:50:41.422Z,22.29
2024-05-09T12:53:09.225Z,22.58
2024-05-09T12:55:44.292Z,22.80
2024-05-09T12:58:22.334Z,22.83
2024-05-09T13:00:51.535Z,22.77
2024-05-09T13:03:19.396Z,22.83
2024-05-09T13:05:47.165Z,23.07
2024-05-09T13:08:14.557Z,23.10
2024-05-09T13:10:42.522Z,23.03
2024-05-09T13:13:11.285Z,23.06
2024-05-09T13:15:39.303Z,22.88
2024-05-09T13:18:07.352Z,22.64
2024-05-09T13:20:37.087Z,22.41
2024-05-09T13:23:07.215Z,22.24
2024-05-09T13:25:35.700Z,21.96
2024-05-09T13:28:04.867Z,21.63
2024-05-09T13:30:39.478Z,21.37
2024-05-09T13:33:14.095Z,21.51
2024-05-09T13:35:47.242Z,21.78
2024-05-09T13:38:19.337Z,22.06
2024-05-09T13:40:47.816Z,22.37
2024-05-09T13:43:15.884Z,22.64
2024-05-09T13:45:44.117Z,22.79
2024-05-09T13:48:11.655Z,22.96
2024-05-09T13:50:39.531Z,23.01
2024-05-09T13:53:08.188Z,23.01
2024-05-09T13:55:39.730Z,22.92
2024-05-09T13:58:08.780Z,23.07
2024-05-09T14:00:45.036Z,23.15
2024-05-09T14:03:18.427Z,23.29
2024-05-09T14:05:47.416Z,23.40
2024-05-09T14:08:15.888Z,23.43
2024-05-09T14:10:46.722Z,23.58
2024-05-09T14:13:14.889Z,23.62
2024-05-09T14:15:42.536Z,23.62
2024-05-09T14:18:13.236Z,23.75
2024-05-09T14:20:42.170Z,23.79
2024-05-09T14:23:09.957Z,23.77
2024-05-09T14:25:42.037Z,23.80
2024-05-09T14:28:11.912Z,24.05
2024-05-09T14:30:40.100Z,24.05
2024-05-09T14:33:09.001Z,24.07
2024-05-09T14:35:38.823Z,24.08
2024-05-09T14:38:07.919Z,24.17
2024-05-09T14:40:42.241Z,24.25
2024-05-09T14:43:15.922Z,24.09
2024-05-09T14:45:47.337Z,23.91
2024-05-09T14:48:15.991Z,24.00
2024-05-09T14:50:43.867Z,24.15
2024-05-09T14:53:12.781Z,24.26
2024-05-09T14:55:42.574Z,24.09
2024-05-09T14:58:11.757Z,23.97
2024-05-09T15:00:46.121Z,23.51
2024-05-09T15:03:21.145Z,23.26
2024-05-09T15:05:49.842Z,23.08
2024-05-09T15:08:18.653Z,23.00
2024-05-09T15:10:47.307Z,22.90
2024-05-09T15:13:16.766Z,22.70
2024-05-09T15:15:44.931Z,22.44
2024-05-09T15:18:13.264Z,22.36
2024-05-09T15:20:41.439Z,22.47
2024-05-09T15:23:08.898Z,22.64
2024-05-09T15:25:37.007Z,22.92
2024-05-09T15:28:08.221Z,23.32
2024-05-09T15:30:36.598Z,23.60
2024-05-09T15:33:05.025Z,23.77
2024-05-09T15:35:33.951Z,24.08
2024-05-09T15:38:03.330Z,24.30
2024-05-09T15:40:38.031Z,24.52
2024-05-09T15:43:10.586Z,24.81
2024-05-09T15:45:39.859Z,24.92
2024-05-09T15:48:10.234Z,24.92
2024-05-09T15:50:41.018Z,24.89
2024-05-09T15:53:11.974Z,24.75
2024-05-09T15:55:40.563Z,24.49
2024-05-09T15:58:08.355Z,24.49
2024-05-09T16:00:39.829Z,24.45
2024-05-09T16:03:14.542Z,24.32
2024-05-09T16:05:46.773Z,24.11
2024-05-09T16:08:15.612Z,23.82
2024-05-09T16:10:46.112Z,23.57
2024-05-09T16:13:15.240Z,23.43
2024-05-09T16:15:44.470Z,23.27
2024-05-09T16:18:12.485Z,23.03
2024-05-09T16:20:42.559Z,22.85
2024-05-09T16:23:11.757Z,22.69
2024-05-09T16:25:40.135Z,22.42
2024-05-09T16:28:10.419Z,22.31
2024-05-09T16:30:41.815Z,22.28
2024-05-09T16:33:11.078Z,22.23
2024-05-09T16:35:39.733Z,22.13
2024-05-09T16:38:07.461Z,22.08
2024-05-09T16:40:39.105Z,21.98
2024-05-09T16:43:13.367Z,21.66
2024-05-09T16:45:45.423Z,21.50
2024-05-09T16:48:14.542Z,21.35
2024-05-09T16:50:42.283Z,21.26
2024-05-09T16:53:09.721Z,21.31
2024-05-09T16:55:37.303Z,21.24
2024-05-09T16:58:06.763Z,21.34
2024-05-09T17:00:40.861Z,21.43
2024-05-09T17:03:13.873Z,21.38
2024-05-09T17:05:42.966Z,21.29
2024-05-09T17:08:10.618Z,21.11
2024-05-09T17:10:38.252Z,20.94
2024-05-09T17:13:07.728Z,20.78
2024-05-09T17:15:37.314Z,20.71
2024-05-09T17:18:06.088Z,20.52
2024-05-09T17:20:36.315Z,20.49
2024-05-09T17:23:12.811Z,20.48
2024-05-09T17:25:41.468Z,20.47
2024-05-09T17:28:09.599Z,20.53
2024-05-09T17:30:39.418Z,20.53
2024-05-09T17:33:10.217Z,20.52
2024-05-09T17:35:38.874Z,20.37
2024-05-09T17:38:07.107Z,20.29
2024-05-09T17:40:37.252Z,20.36
2024-05-09T17:43:08.469Z,20.45
2024-05-09T17:45:39.069Z,20.45
2024-05-09T17:48:07.843Z,20.45
2024-05-09T17:50:38.083Z,20.36
2024-05-09T17:53:07.156Z,20.22
2024-05-09T17:55:35.557Z,20.13
2024-05-09T17:58:04.894Z,20.09
2024-05-09T18:00:39.052Z,20.04
2024-05-09T18:03:11.934Z,19.99
2024-05-09T18:05:41.110Z,19.86
2024-05-09T18:08:09.219Z,19.79
2024-05-09T18:10:39.337Z,19.78
2024-05-09T18:13:12.233Z,19.71
2024-05-09T18:15:40.539Z,19.64
2024-05-09T18:18:09.311Z,19.55
2024-05-09T18:20:43.003Z,19.51
2024-05-09T18:23:15.773Z,19.46
2024-05-09T18:25:44.612Z,19.51
2024-05-09T18:28:12.055Z,19.54
2024-05-09T18:30:40.387Z,19.54
2024-05-09T18:33:10.900Z,19.53
2024-05-09T18:35:38.857Z,19.48
2024-05-09T18:38:06.326Z,19.30
2024-05-09T18:40:36.706Z,19.17
2024-05-09T18:43:08.126Z,18.98
2024-05-09T18:45:38.395Z,18.87
2024-05-09T18:48:07.823Z,18.81
2024-05-09T18:50:39.686Z,18.73
2024-05-09T18:53:13.210Z,18.71
2024-05-09T18:55:44.666Z,18.68
2024-05-09T18:58:12.253Z,18.59
2024-05-09T19:00:42.609Z,18.52
2024-05-09T19:03:14.123Z,18.42
2024-05-09T19:05:45.237Z,18.40
2024-05-09T19:08:14.674Z,18.30
2024-05-09T19:10:42.386Z,18.25
2024-05-09T19:13:12.730Z,18.26
2024-05-09T19:15:42.539Z,18.23
2024-05-09T19:18:12.460Z,18.17
2024-05-09T19:20:40.415Z,18.18
2024-05-09T19:23:08.016Z,18.15
2024-05-09T19:25:36.927Z,18.13
2024-05-09T19:28:05.655Z,18.18
2024-05-09T19:30:39.128Z,18.15
2024-05-09T19:33:10.454Z,18.15
2024-05-09T19:35:39.134Z,18.04
2024-05-09T19:38:06.818Z,17.98
2024-05-09T19:40:35.329Z,17.99
2024-05-09T19:43:05.011Z,18.02
2024-05-09T19:45:34.942Z,17.97
2024-05-09T19:48:03.759Z,17.89
2024-05-09T19:50:39.705Z,17.89
2024-05-09T19:53:13.245Z,17.91
2024-05-09T19:55:41.414Z,17.90
2024-05-09T19:58:10.709Z,17.86
2024-05-09T20:00:41.662Z,17.82
2024-05-09T20:03:12.309Z,17.71
2024-05-09T20:05:40.254Z,17.58
2024-05-09T20:08:08.096Z,17.58
2024-05-09T20:10:36.580Z,17.50
2024-05-09T20:13:06.770Z,17.48
2024-05-09T20:15:36.878Z,17.50
2024-05-09T20:18:05.536Z,17.53
2024-05-09T20:20:39.359Z,17.51
2024-05-09T20:23:11.037Z,17.48
2024-05-09T20:25:41.930Z,17.41
2024-05-09T20:28:10.016Z,17.36
2024-05-09T20:30:37.944Z,17.24
2024-05-09T20:33:07.824Z,17.14
2024-05-09T20:35:36.561Z,17.10
2024-05-09T20:38:04.552Z,17.01
2024-05-09T20:40:36.487Z,16.98
2024-05-09T20:43:07.505Z,16.96
2024-05-09T20:45:36.860Z,16.97
2024-05-09T20:48:04.959Z,16.93
2024-05-09T20:50:38.809Z,16.91
2024-05-09T20:53:10.024Z,16.89
2024-05-09T20:55:37.766Z,16.87
2024-05-09T20:58:05.452Z,16.95
2024-05-09T21:00:40.339Z,16.95
2024-05-09T21:03:12.214Z,16.86
2024-05-09T21:05:40.684Z,16.87
2024-05-09T21:08:09.046Z,16.84
2024-05-09T21:10:37.436Z,16.80
2024-05-09T21:13:06.430Z,16.78
2024-05-09T21:15:35.121Z,16.74
2024-05-09T21:18:03.114Z,16.75
2024-05-09T21:20:33.313Z,16.75
2024-05-09T21:23:02.383Z,16.71
2024-05-09T21:25:30.152Z,16.73
2024-05-09T21:27:57.904Z,16.72
2024-05-09T21:30:38.186Z,16.69
2024-05-09T21:33:11.079Z,16.67
2024-05-09T21:35:40.419Z,16.66
2024-05-09T21:38:08.249Z,16.64
2024-05-09T21:40:36.980Z,16.65
2024-05-09T21:43:06.083Z,16.64
2024-05-09T21:45:34.508Z,16.66
2024-05-09T21:48:04.732Z,16.66
2024-05-09T21:50:39.249Z,16.68
2024-05-09T21:53:09.048Z,16.72
2024-05-09T21:55:36.384Z,16.71
2024-05-09T21:58:05.111Z,16.70
2024-05-09T22:00:37.642Z,16.72
2024-05-09T22:03:11.318Z,16.72
2024-05-09T22:05:42.242Z,16.71
2024-05-09T22:08:10.931Z,16.71
2024-05-09T22:10:38.585Z,16.69
2024-05-09T22:13:06.928Z,16.66
2024-05-09T22:15:40.280Z,16.65
2024-05-09T22:18:09.868Z,16.64
2024-05-09T22:20:44.820Z,16.62
2024-05-09T22:23:14.327Z,16.59
2024-05-09T22:25:42.472Z,16.59
2024-05-09T22:28:10.079Z,16.58
2024-05-09T22:30:39.813Z,16.55
2024-05-09T22:33:11.958Z,16.56
2024-05-09T22:35:41.226Z,16.56
2024-05-09T22:38:09.076Z,16.59
2024-05-09T22:40:45.976Z,16.59
2024-05-09T22:43:22.211Z,16.61
2024-05-09T22:45:52.045Z,16.62
2024-05-09T22:48:19.801Z,16.64
2024-05-09T22:50:47.467Z,16.63
2024-05-09T22:53:14.995Z,16.62
2024-05-09T22:55:42.780Z,16.62
2024-05-09T22:58:11.130Z,16.62
2024-05-09T23:00:38.869Z,16.61
2024-05-09T23:03:06.547Z,16.59
2024-05-09T23:05:34.175Z,16.59
2024-05-09T23:08:02.836Z,16.57
2024-05-09T23:10:35.956Z,16.55
2024-05-09T23:13:06.996Z,16.52
2024-05-09T23:15:35.023Z,16.47
2024-05-09T23:18:02.573Z,16.44
2024-05-09T23:20:36.886Z,16.45
2024-05-09T23:23:11.450Z,16.38
2024-05-09T23:25:41.823Z,16.36
2024-05-09T23:28:10.352Z,16.31
2024-05-09T23:30:40.326Z,16.27
2024-05-09T23:33:12.198Z,16.27
2024-05-09T23:35:42.124Z,16.26
2024-05-09T23:38:09.538Z,16.25
2024-05-09T23:40:39.982Z,16.28
2024-05-09T23:43:10.537Z,16.25
2024-05-09T23:45:38.742Z,16.21
2024-05-09T23:48:06.894Z,16.17
2024-05-09T23:50:37.630Z,16.17
2024-05-09T23:53:08.589Z,16.18
2024-05-09T23:55:37.411Z,16.14
2024-05-09T23:58:05.278Z,16.10
